Time;durP1;ratioP1;P1;durP2;ratioP2;P2;SDS_P1;SDS_P2;PMS_P1;PMS_P2;Temp;Humidity;BMP_temperature;BMP_pressure;BME280_temperature;BME280_humidity;BME280_pressure;Samples;Min_cycle;Max_cycle;Signal;HPM_P1;HPM_P2
2024/02/25 00:01:25;;;;;;;4.95;1.30;;;;;;;;;;5041983;28;20041;-72
2024/02/25 00:03:58;;;;;;;4.95;1.30;;;;;;;;;;5040574;28;20512;-74
2024/02/25 00:06:30;;;;;;;2.78;1.27;;;;;;;;;;5043349;28;20598;-73
2024/02/25 00:09:05;;;;;;;5.90;1.42;;;;;;;;;;5043366;28;20080;-72
2024/02/25 00:11:43;;;;;;;2.70;1.30;;;;;;;;;;5043749;28;20060;-74
2024/02/25 00:14:16;;;;;;;2.83;1.02;;;;;;;;;;5042266;28;20071;-74
2024/02/25 00:16:53;;;;;;;3.50;1.55;;;;;;;;;;5042984;28;20053;-75
2024/02/25 00:19:30;;;;;;;5.05;1.10;;;;;;;;;;5044467;28;20055;-74
2024/02/25 00:22:01;;;;;;;2.13;0.90;;;;;;;;;;5041965;28;20053;-73
2024/02/25 00:24:31;;;;;;;3.58;1.10;;;;;;;;;;5042842;28;20048;-72
2024/02/25 00:27:05;;;;;;;2.03;1.00;;;;;;;;;;5043296;28;20055;-74
2024/02/25 00:29:39;;;;;;;4.53;1.30;;;;;;;;;;5041854;28;20044;-73
2024/02/25 00:32:12;;;;;;;3.53;1.20;;;;;;;;;;5041858;28;20067;-73
2024/02/25 00:34:42;;;;;;;1.80;1.10;;;;;;;;;;5042594;28;20419;-74
2024/02/25 00:37:35;;;;;;;4.03;1.23;;;;;;;;;;5043063;28;20068;-73
2024/02/25 00:40:07;;;;;;;7.47;1.75;;;;;;;;;;5043068;28;20399;-73
2024/02/25 00:42:45;;;;;;;5.57;1.35;;;;;;;;;;5042599;28;20055;-72
2024/02/25 00:45:17;;;;;;;3.88;1.20;;;;;;;;;;5043059;28;20057;-73
2024/02/25 00:47:52;;;;;;;2.08;1.08;;;;;;;;;;5023173;28;20057;-73
2024/02/25 00:50:24;;;;;;;3.30;1.60;;;;;;;;;;5042021;28;20045;-76
2024/02/25 00:52:54;;;;;;;1.80;1.00;;;;;;;;;;5040993;28;21076;-75
2024/02/25 00:55:27;;;;;;;5.07;1.25;;;;;;;;;;5042650;28;20053;-73
2024/02/25 00:58:00;;;;;;;3.53;1.30;;;;;;;;;;5042303;28;20048;-74
2024/02/25 01:00:31;;;;;;;6.82;1.30;;;;;;;;;;5041370;28;20057;-74
2024/02/25 01:03:03;;;;;;;7.90;1.08;;;;;;;;;;5042145;28;20550;-73
2024/02/25 01:05:34;;;;;;;3.67;1.35;;;;;;;;;;5042274;28;20057;-73
2024/02/25 01:08:08;;;;;;;4.22;1.35;;;;;;;;;;5040626;28;20049;-75
2024/02/25 01:10:40;;;;;;;1.58;1.20;;;;;;;;;;5042616;28;20045;-74
2024/02/25 01:13:14;;;;;;;3.80;1.30;;;;;;;;;;5042870;28;20045;-76
2024/02/25 01:15:51;;;;;;;2.55;1.20;;;;;;;;;;5042186;28;20065;-73
2024/02/25 01:18:30;;;;;;;2.97;1.30;;;;;;;;;;5042375;28;20527;-72
2024/02/25 01:21:37;;;;;;;5.88;1.40;;;;;;;;;;5042078;28;20045;-73
2024/02/25 01:24:16;;;;;;;7.28;1.38;;;;;;;;;;5041115;28;20049;-78
2024/02/25 01:26:48;;;;;;;6.88;1.38;;;;;;;;;;5042442;28;20041;-73
2024/02/25 01:29:30;;;;;;;3.15;1.20;;;;;;;;;;5042426;28;20076;-73
2024/02/25 01:32:01;;;;;;;4.07;1.60;;;;;;;;;;5040964;28;20045;-74
2024/02/25 01:34:33;;;;;;;12.25;1.70;;;;;;;;;;5040785;28;20389;-73
2024/02/25 01:37:04;;;;;;;3.63;1.52;;;;;;;;;;5024495;28;20051;-72
2024/02/25 01:39:38;;;;;;;5.15;1.85;;;;;;;;;;5042443;28;20059;-73
2024/02/25 01:42:10;;;;;;;4.28;1.60;;;;;;;;;;5025193;28;20057;-72
2024/02/25 01:45:01;;;;;;;3.22;1.60;;;;;;;;;;5041863;28;20068;-73
2024/02/25 01:47:32;;;;;;;7.35;1.90;;;;;;;;;;5040406;28;20041;-73
2024/02/25 01:50:07;;;;;;;3.65;1.60;;;;;;;;;;5042070;28;20060;-73
2024/02/25 01:52:41;;;;;;;4.10;1.38;;;;;;;;;;5042106;28;20045;-72
2024/02/25 01:55:12;;;;;;;4.30;1.50;;;;;;;;;;5041884;28;20053;-73
2024/02/25 01:57:42;;;;;;;3.13;1.40;;;;;;;;;;5041667;28;20053;-73
2024/02/25 02:00:23;;;;;;;6.50;1.40;;;;;;;;;;5043782;28;20064;-74
2024/02/25 02:02:55;;;;;;;3.25;1.38;;;;;;;;;;5045524;28;20534;-73
2024/02/25 02:05:29;;;;;;;3.05;1.48;;;;;;;;;;5044414;28;20048;-72
2024/02/25 02:07:59;;;;;;;10.57;2.08;;;;;;;;;;5045479;28;20053;-75
2024/02/25 02:10:33;;;;;;;4.65;1.67;;;;;;;;;;5045615;28;20065;-74
2024/02/25 02:13:07;;;;;;;3.17;1.25;;;;;;;;;;5045358;28;20045;-74
2024/02/25 02:15:42;;;;;;;4.95;1.40;;;;;;;;;;5043537;28;20051;-73
2024/02/25 02:18:13;;;;;;;3.03;1.30;;;;;;;;;;5042753;28;20063;-74
2024/02/25 02:20:48;;;;;;;2.60;1.13;;;;;;;;;;5043374;28;20045;-73
2024/02/25 02:23:21;;;;;;;3.22;1.48;;;;;;;;;;5028083;28;20508;-73
2024/02/25 02:25:53;;;;;;;2.65;1.30;;;;;;;;;;5043829;28;20404;-73
2024/02/25 02:28:25;;;;;;;4.22;1.33;;;;;;;;;;5044647;28;20064;-74
2024/02/25 02:30:56;;;;;;;4.45;1.50;;;;;;;;;;5043785;28;20048;-73
2024/02/25 02:33:27;;;;;;;3.03;1.27;;;;;;;;;;5045293;28;20045;-73
2024/02/25 02:35:59;;;;;;;3.38;1.30;;;;;;;;;;5045203;28;20419;-75
2024/02/25 02:38:30;;;;;;;4.45;1.23;;;;;;;;;;5045786;28;20053;-74
2024/02/25 02:41:15;;;;;;;8.05;1.30;;;;;;;;;;5046175;28;20041;-73
2024/02/25 02:43:48;;;;;;;3.25;1.10;;;;;;;;;;5044449;28;20049;-75
2024/02/25 02:46:24;;;;;;;2.45;1.20;;;;;;;;;;5047569;28;20530;-74
2024/02/25 02:48:56;;;;;;;4.63;1.38;;;;;;;;;;5045161;28;20048;-75
2024/02/25 02:51:27;;;;;;;2.45;1.20;;;;;;;;;;5045268;28;20526;-73
2024/02/25 02:53:58;;;;;;;1.63;1.13;;;;;;;;;;5044684;28;20044;-73
2024/02/25 02:56:33;;;;;;;2.72;1.20;;;;;;;;;;5045014;28;20053;-75
2024/02/25 02:59:04;;;;;;;3.35;1.55;;;;;;;;;;5043808;28;20053;-74
2024/02/25 03:01:34;;;;;;;4.07;1.20;;;;;;;;;;5044864;28;20053;-75
2024/02/25 03:04:04;;;;;;;4.18;1.10;;;;;;;;;;5045194;28;20547;-75
2024/02/25 03:06:35;;;;;;;2.90;1.20;;;;;;;;;;5045008;28;20055;-73
2024/02/25 03:09:15;;;;;;;1.77;1.10;;;;;;;;;;5044389;28;20511;-74
2024/02/25 03:11:45;;;;;;;4.53;1.40;;;;;;;;;;5027294;28;20049;-74
2024/02/25 03:14:16;;;;;;;4.55;1.50;;;;;;;;;;5045035;28;20040;-73
2024/02/25 03:16:49;;;;;;;2.03;1.08;;;;;;;;;;5042826;28;20067;-75
2024/02/25 03:19:23;;;;;;;4.43;1.30;;;;;;;;;;5044784;28;20060;-75
2024/02/25 03:21:54;;;;;;;4.53;1.30;;;;;;;;;;5044693;28;20812;-75
2024/02/25 03:24:24;;;;;;;5.28;1.40;;;;;;;;;;5044230;28;20049;-75
2024/02/25 03:26:55;;;;;;;5.50;1.60;;;;;;;;;;5043440;28;20041;-74
2024/02/25 03:29:26;;;;;;;5.32;1.50;;;;;;;;;;5044213;28;20479;-74
2024/02/25 03:31:58;;;;;;;1.63;1.25;;;;;;;;;;5045130;28;20055;-75
2024/02/25 03:34:28;;;;;;;2.38;1.20;;;;;;;;;;5045273;28;20041;-74
2024/02/25 03:36:58;;;;;;;2.13;1.10;;;;;;;;;;5044815;28;20048;-73
2024/02/25 03:39:28;;;;;;;3.80;1.40;;;;;;;;;;5043952;28;20056;-74
2024/02/25 03:42:02;;;;;;;7.53;1.83;;;;;;;;;;5043495;28;20494;-74
2024/02/25 03:44:33;;;;;;;2.20;1.42;;;;;;;;;;5042680;28;20057;-73
2024/02/25 03:47:04;;;;;;;5.95;1.20;;;;;;;;;;5043920;28;20586;-74
2024/02/25 03:49:34;;;;;;;4.80;1.50;;;;;;;;;;5045076;28;20922;-72
2024/02/25 03:52:06;;;;;;;4.15;1.30;;;;;;;;;;5043661;28;20049;-73
2024/02/25 03:54:37;;;;;;;3.38;1.20;;;;;;;;;;5043280;28;20056;-74
2024/02/25 03:57:07;;;;;;;5.28;1.50;;;;;;;;;;5043816;28;20045;-74
2024/02/25 03:59:37;;;;;;;2.42;1.30;;;;;;;;;;5043977;28;20049;-74
2024/02/25 04:02:09;;;;;;;4.22;1.27;;;;;;;;;;5042409;28;20052;-73
2024/02/25 04:04:45;;;;;;;6.03;1.20;;;;;;;;;;5042439;28;20049;-74
2024/02/25 04:07:16;;;;;;;3.58;1.23;;;;;;;;;;5042839;28;20053;-73
2024/02/25 04:09:46;;;;;;;7.78;1.58;;;;;;;;;;5043389;28;20048;-73
2024/02/25 04:12:16;;;;;;;3.33;1.13;;;;;;;;;;5043340;28;20049;-74
2024/02/25 04:14:48;;;;;;;2.53;1.20;;;;;;;;;;5043669;28;20033;-73
2024/02/25 04:17:20;;;;;;;3.83;1.30;;;;;;;;;;5042796;28;20075;-74
2024/02/25 04:19:54;;;;;;;3.08;1.30;;;;;;;;;;5043949;28;20534;-73
2024/02/25 04:22:25;;;;;;;4.00;1.52;;;;;;;;;;5043629;28;20052;-72
2024/02/25 04:24:55;;;;;;;4.57;1.35;;;;;;;;;;5043600;28;20045;-75
2024/02/25 04:27:26;;;;;;;2.17;1.30;;;;;;;;;;5042917;28;20060;-74
2024/02/25 04:29:57;;;;;;;3.17;1.52;;;;;;;;;;5043071;28;20044;-74
2024/02/25 04:32:27;;;;;;;4.28;1.40;;;;;;;;;;5042826;28;20045;-75
2024/02/25 04:34:58;;;;;;;2.28;1.08;;;;;;;;;;5042064;28;20624;-75
2024/02/25 04:37:28;;;;;;;5.13;1.20;;;;;;;;;;5042642;28;20057;-74
2024/02/25 04:40:02;;;;;;;3.75;1.40;;;;;;;;;;5041643;28;20049;-74
2024/02/25 04:42:33;;;;;;;1.38;1.10;;;;;;;;;;5042282;28;20064;-74
2024/02/25 04:45:03;;;;;;;2.80;1.33;;;;;;;;;;5042559;28;20053;-74
2024/02/25 04:47:34;;;;;;;2.83;1.08;;;;;;;;;;5042617;28;20415;-74
2024/02/25 04:50:07;;;;;;;5.22;1.40;;;;;;;;;;5042628;28;20534;-74
2024/02/25 04:52:39;;;;;;;3.35;1.63;;;;;;;;;;5042709;28;20052;-74
2024/02/25 04:55:09;;;;;;;3.75;1.77;;;;;;;;;;5041373;28;20533;-74
2024/02/25 04:57:40;;;;;;;4.13;1.40;;;;;;;;;;5041532;28;20045;-73
2024/02/25 05:00:12;;;;;;;4.07;1.65;;;;;;;;;;5042797;28;20051;-73
2024/02/25 05:02:44;;;;;;;5.85;1.40;;;;;;;;;;5042200;28;20048;-74
2024/02/25 05:05:15;;;;;;;3.15;1.13;;;;;;;;;;5042754;28;20049;-74
2024/02/25 05:07:44;;;;;;;4.03;1.45;;;;;;;;;;5042879;28;20064;-75
2024/02/25 05:10:15;;;;;;;5.93;1.30;;;;;;;;;;5042826;28;20049;-74
2024/02/25 05:12:48;;;;;;;2.45;1.30;;;;;;;;;;5042230;28;20071;-74
2024/02/25 05:15:19;;;;;;;2.17;1.10;;;;;;;;;;5042278;28;20408;-75
2024/02/25 05:17:49;;;;;;;4.13;1.77;;;;;;;;;;5041739;28;20049;-74
2024/02/25 05:20:20;;;;;;;1.67;1.38;;;;;;;;;;5042891;28;20053;-74
2024/02/25 05:22:51;;;;;;;2.58;1.33;;;;;;;;;;5042238;28;20049;-75
2024/02/25 05:25:22;;;;;;;3.53;1.45;;;;;;;;;;5040459;28;20052;-74
2024/02/25 05:27:53;;;;;;;4.20;1.42;;;;;;;;;;5042210;28;20535;-74
2024/02/25 05:30:22;;;;;;;3.85;1.60;;;;;;;;;;5041002;28;20415;-74
2024/02/25 05:32:55;;;;;;;2.20;1.35;;;;;;;;;;5042092;28;20045;-74
2024/02/25 05:35:27;;;;;;;4.55;1.67;;;;;;;;;;5041971;28;20056;-74
2024/02/25 05:37:57;;;;;;;1.95;1.38;;;;;;;;;;5041925;28;20040;-73
2024/02/25 05:40:27;;;;;;;2.33;1.42;;;;;;;;;;5041850;28;20045;-74
2024/02/25 05:42:58;;;;;;;4.05;1.50;;;;;;;;;;5041101;28;20064;-74
2024/02/25 05:45:30;;;;;;;2.88;1.38;;;;;;;;;;5042362;28;20045;-74
2024/02/25 05:48:02;;;;;;;3.00;1.70;;;;;;;;;;5042279;28;20518;-74
2024/02/25 05:50:32;;;;;;;2.67;1.75;;;;;;;;;;5041901;28;20068;-74
2024/02/25 05:53:03;;;;;;;1.98;1.30;;;;;;;;;;5039992;28;20049;-74
2024/02/25 05:55:34;;;;;;;2.47;1.60;;;;;;;;;;5041832;28;20044;-74
2024/02/25 05:58:05;;;;;;;3.95;1.63;;;;;;;;;;5041635;28;20056;-75
2024/02/25 06:00:36;;;;;;;7.95;1.73;;;;;;;;;;5042003;28;20053;-73
2024/02/25 06:03:06;;;;;;;6.30;1.65;;;;;;;;;;5042118;28;20044;-74
2024/02/25 06:05:38;;;;;;;5.97;2.17;;;;;;;;;;5041259;28;20056;-74
2024/02/25 06:08:11;;;;;;;5.63;1.50;;;;;;;;;;5041217;28;20049;-74
2024/02/25 06:10:41;;;;;;;1.73;1.40;;;;;;;;;;5041627;28;20049;-75
2024/02/25 06:13:11;;;;;;;3.17;1.90;;;;;;;;;;5042113;28;20045;-76
2024/02/25 06:15:41;;;;;;;6.30;2.40;;;;;;;;;;5042744;28;20403;-74
2024/02/25 06:18:13;;;;;;;4.30;1.98;;;;;;;;;;5040766;28;20518;-73
2024/02/25 06:20:45;;;;;;;2.97;1.63;;;;;;;;;;5042046;28;20048;-72
2024/02/25 06:23:16;;;;;;;6.97;1.60;;;;;;;;;;5041425;28;20045;-73
2024/02/25 06:25:46;;;;;;;4.75;1.80;;;;;;;;;;5041451;28;20044;-73
2024/02/25 06:28:16;;;;;;;2.78;1.67;;;;;;;;;;5041744;28;20415;-74
2024/02/25 06:30:47;;;;;;;6.13;1.80;;;;;;;;;;5042249;28;20053;-74
2024/02/25 06:33:19;;;;;;;3.35;1.90;;;;;;;;;;5042411;28;20041;-73
2024/02/25 06:35:53;;;;;;;2.05;1.63;;;;;;;;;;5041790;28;20519;-74
2024/02/25 06:38:23;;;;;;;2.42;1.73;;;;;;;;;;5041663;28;20080;-73
2024/02/25 06:40:55;;;;;;;5.05;1.73;;;;;;;;;;5041797;28;20063;-73
2024/02/25 06:43:28;;;;;;;5.97;2.20;;;;;;;;;;5041378;28;20041;-74
2024/02/25 06:45:58;;;;;;;4.05;1.50;;;;;;;;;;5042757;28;20044;-73
2024/02/25 06:48:29;;;;;;;5.93;1.90;;;;;;;;;;5045070;28;20052;-73
2024/02/25 06:51:01;;;;;;;4.20;2.17;;;;;;;;;;5045333;28;20044;-74
2024/02/25 06:53:34;;;;;;;4.45;1.58;;;;;;;;;;5045212;28;20999;-74
2024/02/25 06:56:04;;;;;;;3.33;1.83;;;;;;;;;;5044427;28;20048;-76
2024/02/25 06:58:34;;;;;;;5.03;1.92;;;;;;;;;;5044817;28;20064;-73
2024/02/25 07:01:05;;;;;;;4.18;1.77;;;;;;;;;;5044500;28;20529;-74
2024/02/25 07:03:37;;;;;;;5.07;1.67;;;;;;;;;;5044711;28;20045;-74
2024/02/25 07:06:10;;;;;;;3.88;1.77;;;;;;;;;;5044781;28;20045;-73
2024/02/25 07:08:41;;;;;;;4.90;1.60;;;;;;;;;;5044575;28;20061;-74
2024/02/25 07:11:18;;;;;;;3.85;1.77;;;;;;;;;;5043583;28;20049;-74
2024/02/25 07:13:51;;;;;;;2.92;1.75;;;;;;;;;;5045458;28;20040;-74
2024/02/25 07:16:23;;;;;;;2.95;1.60;;;;;;;;;;5042785;28;20055;-74
2024/02/25 07:18:54;;;;;;;2.50;1.60;;;;;;;;;;5044611;28;20086;-74
2024/02/25 07:21:24;;;;;;;4.40;1.73;;;;;;;;;;5044427;28;20433;-72
2024/02/25 07:23:56;;;;;;;3.58;1.60;;;;;;;;;;5044544;28;20435;-73
2024/02/25 07:26:27;;;;;;;2.88;1.50;;;;;;;;;;5044201;28;20049;-73
2024/02/25 07:28:58;;;;;;;3.40;1.55;;;;;;;;;;5044141;28;20852;-74
2024/02/25 07:31:28;;;;;;;3.75;1.30;;;;;;;;;;5044664;28;20052;-75
2024/02/25 07:34:00;;;;;;;2.63;1.60;;;;;;;;;;5044517;28;20072;-74
2024/02/25 07:36:32;;;;;;;2.92;1.60;;;;;;;;;;5044210;28;20518;-74
2024/02/25 07:39:03;;;;;;;4.30;1.42;;;;;;;;;;5043947;28;20526;-73
2024/02/25 07:41:34;;;;;;;3.80;1.60;;;;;;;;;;5044395;28;20049;-74
2024/02/25 07:44:05;;;;;;;4.68;1.52;;;;;;;;;;5044265;28;20068;-73
2024/02/25 07:46:36;;;;;;;3.88;1.45;;;;;;;;;;5044146;28;20053;-73
2024/02/25 07:49:06;;;;;;;5.22;1.60;;;;;;;;;;5043786;28;20072;-74
2024/02/25 07:51:37;;;;;;;6.35;1.75;;;;;;;;;;5043659;28;20056;-73
2024/02/25 07:54:08;;;;;;;3.92;1.63;;;;;;;;;;5044123;28;20056;-74
2024/02/25 07:56:40;;;;;;;2.47;1.80;;;;;;;;;;5044348;28;20044;-74
2024/02/25 07:59:11;;;;;;;2.85;1.70;;;;;;;;;;5044660;28;20049;-73
2024/02/25 08:01:41;;;;;;;2.72;1.42;;;;;;;;;;5043462;28;20041;-74
2024/02/25 08:04:13;;;;;;;2.65;1.67;;;;;;;;;;5042976;28;20044;-74
2024/02/25 08:06:44;;;;;;;5.40;1.85;;;;;;;;;;5043763;28;20037;-74
2024/02/25 08:09:15;;;;;;;6.82;1.80;;;;;;;;;;5043438;28;20061;-74
2024/02/25 08:11:45;;;;;;;2.63;1.70;;;;;;;;;;5043524;28;20053;-74
2024/02/25 08:14:20;;;;;;;3.33;1.70;;;;;;;;;;5043031;28;20053;-74
2024/02/25 08:16:51;;;;;;;4.28;1.73;;;;;;;;;;5043695;28;20041;-74
2024/02/25 08:19:22;;;;;;;3.55;1.90;;;;;;;;;;5042856;28;20045;-73
2024/02/25 08:21:52;;;;;;;5.82;1.80;;;;;;;;;;5042927;28;20530;-74
2024/02/25 08:24:23;;;;;;;4.57;1.83;;;;;;;;;;5042865;28;20056;-72
2024/02/25 08:26:54;;;;;;;5.40;2.10;;;;;;;;;;5043509;28;20049;-74
2024/02/25 08:29:25;;;;;;;3.30;1.73;;;;;;;;;;5043091;28;20412;-74
2024/02/25 08:31:55;;;;;;;5.68;1.80;;;;;;;;;;5041481;28;20432;-74
2024/02/25 08:34:25;;;;;;;4.55;1.75;;;;;;;;;;5043765;28;20041;-73
2024/02/25 08:36:57;;;;;;;2.58;1.70;;;;;;;;;;5043073;28;20056;-74
2024/02/25 08:39:28;;;;;;;4.18;1.67;;;;;;;;;;5042307;28;20373;-74
2024/02/25 08:41:58;;;;;;;5.53;2.00;;;;;;;;;;5043291;28;20515;-73
2024/02/25 08:44:28;;;;;;;2.97;1.35;;;;;;;;;;5042939;28;20045;-74
2024/02/25 08:47:00;;;;;;;3.40;1.52;;;;;;;;;;5043244;28;20044;-73
2024/02/25 08:49:32;;;;;;;4.28;1.75;;;;;;;;;;5042980;28;20060;-74
2024/02/25 08:52:02;;;;;;;7.22;1.92;;;;;;;;;;5042366;28;20516;-74
2024/02/25 08:54:33;;;;;;;3.70;1.50;;;;;;;;;;5041498;28;20048;-73
2024/02/25 08:57:05;;;;;;;6.35;1.80;;;;;;;;;;5042535;28;20061;-74
2024/02/25 08:59:38;;;;;;;2.85;1.90;;;;;;;;;;5042927;28;20045;-73
2024/02/25 09:02:09;;;;;;;4.55;1.85;;;;;;;;;;5041082;28;20049;-73
2024/02/25 09:04:39;;;;;;;8.40;2.38;;;;;;;;;;5042182;28;20419;-74
2024/02/25 09:07:09;;;;;;;2.53;1.67;;;;;;;;;;5041566;28;20048;-73
2024/02/25 09:09:41;;;;;;;4.50;2.08;;;;;;;;;;5040010;28;20076;-74
2024/02/25 09:12:13;;;;;;;2.85;1.92;;;;;;;;;;5042698;28;20045;-74
2024/02/25 09:14:44;;;;;;;5.18;2.40;;;;;;;;;;5043052;28;20486;-73
2024/02/25 09:17:16;;;;;;;6.15;2.33;;;;;;;;;;5041044;28;20048;-74
2024/02/25 09:19:46;;;;;;;7.18;2.10;;;;;;;;;;5043110;28;20045;-73
2024/02/25 09:22:18;;;;;;;2.83;1.90;;;;;;;;;;5041260;28;20538;-74
2024/02/25 09:24:52;;;;;;;6.75;2.22;;;;;;;;;;5042946;28;20044;-73
2024/02/25 09:27:22;;;;;;;7.03;2.72;;;;;;;;;;5042495;28;20526;-74
2024/02/25 09:29:52;;;;;;;5.75;2.58;;;;;;;;;;5041872;28;20055;-74
2024/02/25 09:32:23;;;;;;;4.60;2.65;;;;;;;;;;5041964;28;20520;-74
2024/02/25 09:34:55;;;;;;;3.22;2.38;;;;;;;;;;5042518;28;20051;-74
2024/02/25 09:37:27;;;;;;;6.50;2.90;;;;;;;;;;5040975;28;20472;-74
2024/02/25 09:39:58;;;;;;;9.35;2.72;;;;;;;;;;5041770;28;20057;-73
2024/02/25 09:42:30;;;;;;;6.53;2.63;;;;;;;;;;5041159;28;20049;-73
2024/02/25 09:45:01;;;;;;;6.53;2.45;;;;;;;;;;5042427;28;20052;-74
2024/02/25 09:47:34;;;;;;;4.25;2.90;;;;;;;;;;5042034;28;20037;-73
2024/02/25 09:50:06;;;;;;;14.02;3.55;;;;;;;;;;5042322;28;20057;-72
2024/02/25 09:52:37;;;;;;;4.25;2.35;;;;;;;;;;5041293;28;20534;-74
2024/02/25 09:55:11;;;;;;;5.20;2.60;;;;;;;;;;5042865;28;20041;-74
2024/02/25 09:57:42;;;;;;;4.32;2.30;;;;;;;;;;5042433;28;20053;-74
2024/02/25 10:00:12;;;;;;;7.63;3.10;;;;;;;;;;5042085;28;20053;-74
2024/02/25 10:02:45;;;;;;;4.63;2.65;;;;;;;;;;5042880;28;20045;-74
2024/02/25 10:05:18;;;;;;;8.88;2.60;;;;;;;;;;5042561;28;20048;-73
2024/02/25 10:08:13;;;;;;;5.57;2.72;;;;;;;;;;5044602;28;20055;-74
2024/02/25 10:10:44;;;;;;;6.03;2.58;;;;;;;;;;5043473;28;20455;-74
2024/02/25 10:13:14;;;;;;;4.57;2.58;;;;;;;;;;5042756;28;20520;-75
2024/02/25 10:15:45;;;;;;;8.15;3.20;;;;;;;;;;5042692;28;20045;-74
2024/02/25 10:18:16;;;;;;;7.15;2.78;;;;;;;;;;5041682;28;20579;-72
2024/02/25 10:20:49;;;;;;;7.13;3.05;;;;;;;;;;5044163;28;20041;-74
2024/02/25 10:23:19;;;;;;;12.77;2.90;;;;;;;;;;5045757;28;20041;-75
2024/02/25 10:25:49;;;;;;;7.63;2.88;;;;;;;;;;5045579;28;20060;-73
2024/02/25 10:28:20;;;;;;;7.40;2.83;;;;;;;;;;5045488;28;20052;-74
2024/02/25 10:31:11;;;;;;;9.32;2.65;;;;;;;;;;5043900;28;20051;-74
2024/02/25 10:33:44;;;;;;;7.60;2.80;;;;;;;;;;5045261;28;20045;-74
2024/02/25 10:36:19;;;;;;;7.45;3.17;;;;;;;;;;5045171;28;20515;-74
2024/02/25 10:38:51;;;;;;;6.32;2.97;;;;;;;;;;5046123;28;20507;-74
2024/02/25 10:41:23;;;;;;;5.85;3.08;;;;;;;;;;5045889;28;20052;-79
2024/02/25 10:43:59;;;;;;;9.98;2.65;;;;;;;;;;5045500;28;20598;-74
2024/02/25 10:46:45;;;;;;;7.22;3.35;;;;;;;;;;5045245;28;20041;-75
2024/02/25 10:49:18;;;;;;;11.32;3.00;;;;;;;;;;5045523;28;20053;-74
2024/02/25 10:51:53;;;;;;;8.38;2.33;;;;;;;;;;5044767;28;20067;-76
2024/02/25 10:54:24;;;;;;;4.07;2.22;;;;;;;;;;5044724;28;20499;-74
2024/02/25 10:56:56;;;;;;;4.82;2.30;;;;;;;;;;5045163;28;20048;-74
2024/02/25 10:59:28;;;;;;;3.60;2.20;;;;;;;;;;5044723;28;20495;-74
2024/02/25 11:02:00;;;;;;;3.60;2.10;;;;;;;;;;5044939;28;20045;-74
2024/02/25 11:04:33;;;;;;;3.05;2.03;;;;;;;;;;5045015;28;20156;-73
2024/02/25 11:07:05;;;;;;;4.38;2.10;;;;;;;;;;5044349;28;20822;-74
2024/02/25 11:09:35;;;;;;;4.05;1.92;;;;;;;;;;5044368;28;20061;-74
2024/02/25 11:12:28;;;;;;;3.47;1.70;;;;;;;;;;5044875;28;20676;-77
2024/02/25 11:15:06;;;;;;;5.10;2.15;;;;;;;;;;5044476;28;20046;-74
2024/02/25 11:17:39;;;;;;;3.60;1.95;;;;;;;;;;5044706;28;20041;-74
2024/02/25 11:20:11;;;;;;;3.35;1.80;;;;;;;;;;5043997;28;20041;-74
2024/02/25 11:22:49;;;;;;;3.30;1.80;;;;;;;;;;5044478;28;20049;-75
2024/02/25 11:25:26;;;;;;;3.38;1.75;;;;;;;;;;5043973;28;20511;-74
2024/02/25 11:28:03;;;;;;;5.45;1.52;;;;;;;;;;5044168;28;20049;-74
2024/02/25 11:30:45;;;;;;;6.90;2.05;;;;;;;;;;5044481;28;20412;-74
2024/02/25 11:33:38;;;;;;;3.10;1.60;;;;;;;;;;5046629;28;20041;-75
2024/02/25 11:36:19;;;;;;;2.58;1.60;;;;;;;;;;5043939;28;20052;-74
2024/02/25 11:38:55;;;;;;;4.05;1.90;;;;;;;;;;5044460;28;20514;-77
2024/02/25 11:41:28;;;;;;;1.42;1.20;;;;;;;;;;5043501;28;20389;-74
2024/02/25 11:44:00;;;;;;;4.13;1.23;;;;;;;;;;5044195;28;20048;-74
2024/02/25 11:46:33;;;;;;;3.33;1.40;;;;;;;;;;5043820;28;20045;-74
2024/02/25 11:49:03;;;;;;;2.15;1.20;;;;;;;;;;5043903;28;20099;-72
2024/02/25 11:51:33;;;;;;;12.02;1.50;;;;;;;;;;5043283;28;20052;-74
2024/02/25 11:54:05;;;;;;;2.65;0.95;;;;;;;;;;5043859;28;20052;-75
2024/02/25 11:56:36;;;;;;;1.60;1.08;;;;;;;;;;5043530;28;20072;-74
2024/02/25 11:59:08;;;;;;;2.03;0.98;;;;;;;;;;5043404;28;20059;-74
2024/02/25 12:01:40;;;;;;;2.83;1.17;;;;;;;;;;5044196;28;20045;-74
2024/02/25 12:04:13;;;;;;;8.25;1.45;;;;;;;;;;5042668;28;20495;-84
2024/02/25 12:06:46;;;;;;;2.67;0.93;;;;;;;;;;5042974;28;20396;-76
2024/02/25 12:09:17;;;;;;;2.28;1.17;;;;;;;;;;5041022;28;20451;-74
2024/02/25 12:11:50;;;;;;;3.65;1.25;;;;;;;;;;5040935;28;20053;-73
2024/02/25 12:14:22;;;;;;;6.07;0.95;;;;;;;;;;5041920;28;20060;-74
2024/02/25 12:16:55;;;;;;;7.18;0.95;;;;;;;;;;5042490;28;20059;-72
2024/02/25 12:19:27;;;;;;;2.28;1.33;;;;;;;;;;5041680;28;20052;-73
2024/02/25 12:21:59;;;;;;;2.42;1.00;;;;;;;;;;5043375;28;20483;-73
2024/02/25 12:24:30;;;;;;;2.28;1.08;;;;;;;;;;5043917;28;20076;-74
2024/02/25 12:27:02;;;;;;;2.63;1.20;;;;;;;;;;5042944;28;20041;-74
2024/02/25 12:29:38;;;;;;;2.92;0.93;;;;;;;;;;5025700;28;20049;-73
2024/02/25 12:32:09;;;;;;;2.15;1.38;;;;;;;;;;5042812;28;20060;-73
2024/02/25 12:34:41;;;;;;;3.35;1.05;;;;;;;;;;5042790;28;20613;-74
2024/02/25 12:37:16;;;;;;;1.67;0.80;;;;;;;;;;5042928;28;20048;-73
2024/02/25 12:39:47;;;;;;;2.08;0.93;;;;;;;;;;5042977;28;20053;-74
2024/02/25 12:42:18;;;;;;;3.42;1.30;;;;;;;;;;5042777;28;20412;-73
2024/02/25 12:44:49;;;;;;;2.22;0.73;;;;;;;;;;5042734;28;20044;-74
2024/02/25 12:47:20;;;;;;;1.48;0.88;;;;;;;;;;5042435;28;20045;-74
2024/02/25 12:49:51;;;;;;;3.70;0.90;;;;;;;;;;5042493;28;20087;-74
2024/02/25 12:52:22;;;;;;;2.17;0.90;;;;;;;;;;5042526;28;20045;-73
2024/02/25 12:54:53;;;;;;;0.93;0.70;;;;;;;;;;5042626;28;20045;-74
2024/02/25 12:57:24;;;;;;;2.65;0.90;;;;;;;;;;5043027;28;20048;-74
2024/02/25 12:59:55;;;;;;;1.02;0.90;;;;;;;;;;5043389;28;20060;-73
2024/02/25 13:02:25;;;;;;;2.88;0.88;;;;;;;;;;5042716;28;20056;-74
2024/02/25 13:04:56;;;;;;;3.80;1.20;;;;;;;;;;5042629;28;20056;-79
2024/02/25 13:07:28;;;;;;;4.47;1.05;;;;;;;;;;5042519;28;20041;-75
2024/02/25 13:10:00;;;;;;;2.08;1.00;;;;;;;;;;5040856;28;20061;-73
2024/02/25 13:12:34;;;;;;;3.92;1.10;;;;;;;;;;5042538;28;20059;-73
2024/02/25 13:15:06;;;;;;;5.22;0.93;;;;;;;;;;5042762;28;20067;-73
2024/02/25 13:17:37;;;;;;;2.10;0.68;;;;;;;;;;5042587;28;20053;-77
2024/02/25 13:20:14;;;;;;;7.78;1.10;;;;;;;;;;5042668;28;20049;-76
2024/02/25 13:22:45;;;;;;;4.78;1.10;;;;;;;;;;5042295;28;20053;-75
2024/02/25 13:25:17;;;;;;;8.50;1.38;;;;;;;;;;5041909;28;20412;-80
2024/02/25 13:27:48;;;;;;;2.33;0.73;;;;;;;;;;5042430;28;20413;-73
2024/02/25 13:30:19;;;;;;;3.55;0.80;;;;;;;;;;5042010;28;20045;-74
2024/02/25 13:32:50;;;;;;;4.18;0.98;;;;;;;;;;5042677;28;20059;-74
2024/02/25 13:35:22;;;;;;;2.33;1.00;;;;;;;;;;5041948;28;20056;-74
2024/02/25 13:37:54;;;;;;;4.05;1.30;;;;;;;;;;5042109;28;20064;-73
2024/02/25 13:40:24;;;;;;;4.43;1.00;;;;;;;;;;5042002;28;20048;-80
2024/02/25 13:42:55;;;;;;;1.60;0.93;;;;;;;;;;5042262;28;20511;-72
2024/02/25 13:45:26;;;;;;;2.58;0.88;;;;;;;;;;5042284;28;20498;-73
2024/02/25 13:48:04;;;;;;;4.47;0.98;;;;;;;;;;5041534;28;20056;-74
2024/02/25 13:50:35;;;;;;;2.95;0.80;;;;;;;;;;5042255;28;20060;-72
2024/02/25 13:53:05;;;;;;;3.00;0.80;;;;;;;;;;5042490;28;20045;-74
2024/02/25 13:55:37;;;;;;;2.75;1.48;;;;;;;;;;5044466;28;20049;-74
2024/02/25 13:58:11;;;;;;;4.18;0.90;;;;;;;;;;5046274;28;20071;-74
2024/02/25 14:00:42;;;;;;;8.15;1.10;;;;;;;;;;5045532;28;20491;-73
2024/02/25 14:03:12;;;;;;;6.30;1.00;;;;;;;;;;5046239;28;20495;-74
2024/02/25 14:05:44;;;;;;;18.58;1.08;;;;;;;;;;5045702;28;20045;-76
2024/02/25 14:08:17;;;;;;;2.33;0.57;;;;;;;;;;5045766;28;20397;-73
2024/02/25 14:10:48;;;;;;;2.38;0.88;;;;;;;;;;5045653;28;20049;-77
2024/02/25 14:13:18;;;;;;;4.90;0.85;;;;;;;;;;5045919;28;20041;-75
2024/02/25 14:15:49;;;;;;;9.68;0.98;;;;;;;;;;5045725;28;20044;-74
2024/02/25 14:18:21;;;;;;;10.63;1.13;;;;;;;;;;5046285;28;20772;-75
2024/02/25 14:20:55;;;;;;;4.53;0.80;;;;;;;;;;5045455;28;20051;-76
2024/02/25 14:23:26;;;;;;;4.60;0.90;;;;;;;;;;5046557;28;20060;-77
2024/02/25 14:25:56;;;;;;;4.72;0.80;;;;;;;;;;5046912;28;20052;-72
2024/02/25 14:28:28;;;;;;;4.53;1.00;;;;;;;;;;5045390;28;20053;-73
2024/02/25 14:31:00;;;;;;;3.03;0.90;;;;;;;;;;5045420;28;20053;-76
2024/02/25 14:33:31;;;;;;;2.42;0.63;;;;;;;;;;5046285;28;20045;-75
2024/02/25 14:36:04;;;;;;;8.25;1.30;;;;;;;;;;5048331;28;20487;-73
2024/02/25 14:38:36;;;;;;;3.35;0.85;;;;;;;;;;5044145;28;20049;-75
2024/02/25 14:41:07;;;;;;;4.28;0.88;;;;;;;;;;5044818;28;20053;-72
2024/02/25 14:43:38;;;;;;;6.03;1.13;;;;;;;;;;5046031;28;20058;-73
2024/02/25 14:46:08;;;;;;;2.05;0.90;;;;;;;;;;5045476;28;20056;-75
2024/02/25 14:48:41;;;;;;;2.05;0.70;;;;;;;;;;5044104;28;20057;-72
2024/02/25 14:51:13;;;;;;;3.08;1.00;;;;;;;;;;5045150;28;20048;-74
2024/02/25 14:53:43;;;;;;;5.65;1.10;;;;;;;;;;5045816;28;20787;-75
2024/02/25 14:56:17;;;;;;;10.27;1.25;;;;;;;;;;5045529;28;20044;-74
2024/02/25 14:58:50;;;;;;;12.13;1.10;;;;;;;;;;5044783;28;20123;-73
2024/02/25 15:01:22;;;;;;;4.03;0.70;;;;;;;;;;5044843;28;20056;-75
2024/02/25 15:03:54;;;;;;;3.20;1.25;;;;;;;;;;5044817;28;20952;-73
2024/02/25 15:06:25;;;;;;;3.33;0.80;;;;;;;;;;5043441;28;20946;-73
2024/02/25 15:08:58;;;;;;;2.47;0.63;;;;;;;;;;5044375;28;20049;-74
2024/02/25 15:11:30;;;;;;;4.72;1.10;;;;;;;;;;5043999;28;20045;-74
2024/02/25 15:14:01;;;;;;;2.78;0.85;;;;;;;;;;5045240;28;20045;-74